Green, KS

10:38 AM CST on November 26, 2014 (GMT -0600)
Mile East of Clay Center | Change Station
CLOSE
Current Station
Personal Weather Station
Location: Clay Center, KS
Elevation: 1287 ft
Nearby Weather Stations

Elev 1287 ft 39.38 °N, 97.09 °W | Updated 21 seconds ago

Overcast
Overcast
39.9 °F
Feels Like 29 °F
N
25.0
Wind Variable Wind from NNW
Gusts 28.0 mph

Today
High -- | Low -- °F
--% Chance of Precip.
Yesterday
High -- | Low -- °F
Precip. -- in
7:23 AM 5:06 PM
Waxing Crescent, 21% visible
Pressure 30.09 in
Visibility 10.0 miles
Clouds Mostly Cloudy 6000 ft
Windchill 29 °F
Dew Point 28 °F
Humidity 63%
Rainfall 0.00 in
Snow Depth Not available.
UV 1 out of 12
Pollen .10 out of 12
Air Quality Not available.
Flu Activity Not available.
METAR KMHK 261552Z 32008G21KT 10SM BKN060 07/M04 A3007 RMK AO2 PK WND 34027/1507 SLP187 T00671039

More Conditions Fewer Conditions

Pressure 30.09 in
Visibility 10.0 miles
Clouds Mostly Cloudy 6000 ft
Windchill 29 °F
Dew Point 28 °F
Humidity 63%
Rainfall 0.00 in
Snow Depth Not available.
UV 1 out of 12
Pollen .10 out of 12
Air Quality Not available.
Flu Activity Not available.
METAR KMHK 261552Z 32008G21KT 10SM BKN060 07/M04 A3007 RMK AO2 PK WND 34027/1507 SLP187 T00671039

More Conditions Fewer Conditions

10-Day Weather Forecast

Almanac

Astronomy

Nov. 26, 2014 Rise Set
Actual Time
Civil Twilight
Nautical Twilight
Astronomical Twilight
Moon
Length of Visible Light
Length of Day
Tomorrow will be .
, % of the Moon is Illuminated

Today's Extremes

State Highs State Lows

Community

WunderPhotos

Upload Photos

1,773,789 photos uploaded!

WunderBlogs® & News

Nearby

Air Quality

  Air Quality AQ Index Pollutant
Not available.

Snow Depth

Station Depth Elevation

Earthquake Activity

City Distance Mag. Time & Date
Minimum magnitude displayed is 2.5.

Coastal Water Temperatures

Place Temperature

Nearby Weather Stations